sensor_id;sensor_type;location;lat;lon;timestamp;P1;durP1;ratioP1;P2;durP2;ratioP2
69410;SDS011;56604;48.652;9.194;2023-07-24T00:01:47;11.37;;;7.90;;
69410;SDS011;56604;48.652;9.194;2023-07-24T00:04:12;17.53;;;7.90;;
69410;SDS011;56604;48.652;9.194;2023-07-24T00:06:38;13.03;;;8.17;;
69410;SDS011;56604;48.652;9.194;2023-07-24T00:09:03;10.97;;;7.77;;
69410;SDS011;56604;48.652;9.194;2023-07-24T00:11:28;11.27;;;8.67;;
69410;SDS011;56604;48.652;9.194;2023-07-24T00:13:53;12.07;;;8.80;;
69410;SDS011;56604;48.652;9.194;2023-07-24T00:16:19;18.83;;;7.97;;
69410;SDS011;56604;48.652;9.194;2023-07-24T00:18:44;14.40;;;8.50;;
69410;SDS011;56604;48.652;9.194;2023-07-24T00:21:09;10.47;;;7.60;;
69410;SDS011;56604;48.652;9.194;2023-07-24T00:23:35;12.27;;;7.50;;
69410;SDS011;56604;48.652;9.194;2023-07-24T00:26:01;14.27;;;9.07;;
69410;SDS011;56604;48.652;9.194;2023-07-24T00:28:26;11.53;;;7.87;;
69410;SDS011;56604;48.652;9.194;2023-07-24T00:30:51;16.10;;;8.53;;
69410;SDS011;56604;48.652;9.194;2023-07-24T00:33:17;12.23;;;8.27;;
69410;SDS011;56604;48.652;9.194;2023-07-24T00:35:42;17.43;;;7.60;;
69410;SDS011;56604;48.652;9.194;2023-07-24T00:38:07;11.57;;;7.80;;
69410;SDS011;56604;48.652;9.194;2023-07-24T00:40:33;11.03;;;7.40;;
69410;SDS011;56604;48.652;9.194;2023-07-24T00:42:58;12.10;;;8.20;;
69410;SDS011;56604;48.652;9.194;2023-07-24T00:45:24;16.03;;;8.10;;
69410;SDS011;56604;48.652;9.194;2023-07-24T00:47:50;14.13;;;9.07;;
69410;SDS011;56604;48.652;9.194;2023-07-24T00:50:15;12.10;;;8.17;;
69410;SDS011;56604;48.652;9.194;2023-07-24T00:52:41;10.60;;;7.80;;
69410;SDS011;56604;48.652;9.194;2023-07-24T00:55:07;12.60;;;9.00;;
69410;SDS011;56604;48.652;9.194;2023-07-24T00:57:35;13.13;;;7.70;;
69410;SDS011;56604;48.652;9.194;2023-07-24T01:00:01;11.87;;;7.47;;
69410;SDS011;56604;48.652;9.194;2023-07-24T01:02:28;10.83;;;7.77;;
69410;SDS011;56604;48.652;9.194;2023-07-24T01:04:55;13.40;;;8.57;;
69410;SDS011;56604;48.652;9.194;2023-07-24T01:07:20;12.87;;;8.17;;
69410;SDS011;56604;48.652;9.194;2023-07-24T01:09:45;12.77;;;8.23;;
69410;SDS011;56604;48.652;9.194;2023-07-24T01:12:18;11.50;;;8.10;;
69410;SDS011;56604;48.652;9.194;2023-07-24T01:15:07;12.87;;;8.10;;
69410;SDS011;56604;48.652;9.194;2023-07-24T01:17:42;12.63;;;8.30;;
69410;SDS011;56604;48.652;9.194;2023-07-24T01:20:13;14.07;;;8.50;;
69410;SDS011;56604;48.652;9.194;2023-07-24T01:22:53;12.83;;;8.37;;
69410;SDS011;56604;48.652;9.194;2023-07-24T01:26:14;17.83;;;8.40;;
69410;SDS011;56604;48.652;9.194;2023-07-24T01:28:32;15.50;;;9.20;;
69410;SDS011;56604;48.652;9.194;2023-07-24T01:30:58;18.47;;;8.47;;
69410;SDS011;56604;48.652;9.194;2023-07-24T01:33:23;11.63;;;8.13;;
69410;SDS011;56604;48.652;9.194;2023-07-24T01:35:50;13.07;;;8.43;;
69410;SDS011;56604;48.652;9.194;2023-07-24T01:38:20;12.80;;;8.33;;
69410;SDS011;56604;48.652;9.194;2023-07-24T01:40:48;18.03;;;9.20;;
69410;SDS011;56604;48.652;9.194;2023-07-24T01:43:14;15.33;;;9.10;;
69410;SDS011;56604;48.652;9.194;2023-07-24T01:45:39;13.43;;;8.47;;
69410;SDS011;56604;48.652;9.194;2023-07-24T01:48:05;14.73;;;8.50;;
69410;SDS011;56604;48.652;9.194;2023-07-24T01:50:31;13.57;;;8.60;;
69410;SDS011;56604;48.652;9.194;2023-07-24T01:52:57;12.50;;;8.07;;
69410;SDS011;56604;48.652;9.194;2023-07-24T01:55:22;15.93;;;8.30;;
69410;SDS011;56604;48.652;9.194;2023-07-24T01:57:47;16.70;;;7.83;;
69410;SDS011;56604;48.652;9.194;2023-07-24T02:00:13;12.17;;;7.83;;
69410;SDS011;56604;48.652;9.194;2023-07-24T02:02:38;15.70;;;9.47;;
69410;SDS011;56604;48.652;9.194;2023-07-24T02:05:03;10.23;;;7.40;;
69410;SDS011;56604;48.652;9.194;2023-07-24T02:07:29;10.90;;;7.47;;
69410;SDS011;56604;48.652;9.194;2023-07-24T02:09:54;11.23;;;7.67;;
69410;SDS011;56604;48.652;9.194;2023-07-24T02:12:20;10.57;;;7.87;;
69410;SDS011;56604;48.652;9.194;2023-07-24T02:14:45;19.73;;;8.43;;
69410;SDS011;56604;48.652;9.194;2023-07-24T02:17:14;13.03;;;7.50;;
69410;SDS011;56604;48.652;9.194;2023-07-24T02:19:40;14.80;;;8.03;;
69410;SDS011;56604;48.652;9.194;2023-07-24T02:22:05;10.73;;;7.67;;
69410;SDS011;56604;48.652;9.194;2023-07-24T02:24:30;9.60;;;7.30;;
69410;SDS011;56604;48.652;9.194;2023-07-24T02:26:55;17.80;;;8.33;;
69410;SDS011;56604;48.652;9.194;2023-07-24T02:29:21;13.03;;;8.20;;
69410;SDS011;56604;48.652;9.194;2023-07-24T02:31:47;19.33;;;9.10;;
69410;SDS011;56604;48.652;9.194;2023-07-24T02:34:12;12.27;;;7.60;;
69410;SDS011;56604;48.652;9.194;2023-07-24T02:36:38;10.70;;;7.30;;
69410;SDS011;56604;48.652;9.194;2023-07-24T02:39:04;11.13;;;8.20;;
69410;SDS011;56604;48.652;9.194;2023-07-24T02:41:29;16.03;;;7.40;;
69410;SDS011;56604;48.652;9.194;2023-07-24T02:43:54;14.10;;;7.63;;
69410;SDS011;56604;48.652;9.194;2023-07-24T02:46:19;13.97;;;8.47;;
69410;SDS011;56604;48.652;9.194;2023-07-24T02:48:45;16.53;;;8.20;;
69410;SDS011;56604;48.652;9.194;2023-07-24T02:51:10;12.30;;;8.50;;
69410;SDS011;56604;48.652;9.194;2023-07-24T02:53:35;10.47;;;7.70;;
69410;SDS011;56604;48.652;9.194;2023-07-24T02:56:01;10.90;;;7.80;;
69410;SDS011;56604;48.652;9.194;2023-07-24T02:58:27;12.10;;;8.13;;
69410;SDS011;56604;48.652;9.194;2023-07-24T03:00:52;14.47;;;7.60;;
69410;SDS011;56604;48.652;9.194;2023-07-24T03:03:18;18.67;;;9.00;;
69410;SDS011;56604;48.652;9.194;2023-07-24T03:05:43;14.90;;;8.37;;
69410;SDS011;56604;48.652;9.194;2023-07-24T03:08:08;12.37;;;7.87;;
69410;SDS011;56604;48.652;9.194;2023-07-24T03:10:33;11.40;;;7.80;;
69410;SDS011;56604;48.652;9.194;2023-07-24T03:12:59;12.40;;;8.00;;
69410;SDS011;56604;48.652;9.194;2023-07-24T03:15:24;12.53;;;8.20;;
69410;SDS011;56604;48.652;9.194;2023-07-24T03:17:49;12.00;;;8.50;;
69410;SDS011;56604;48.652;9.194;2023-07-24T03:20:16;14.40;;;7.70;;
69410;SDS011;56604;48.652;9.194;2023-07-24T03:22:43;12.47;;;7.63;;
69410;SDS011;56604;48.652;9.194;2023-07-24T03:25:09;13.10;;;8.60;;
69410;SDS011;56604;48.652;9.194;2023-07-24T03:27:34;13.63;;;8.77;;
69410;SDS011;56604;48.652;9.194;2023-07-24T03:29:59;16.10;;;8.97;;
69410;SDS011;56604;48.652;9.194;2023-07-24T03:32:25;13.13;;;8.30;;
69410;SDS011;56604;48.652;9.194;2023-07-24T03:34:50;11.90;;;7.90;;
69410;SDS011;56604;48.652;9.194;2023-07-24T03:37:15;12.33;;;7.80;;
69410;SDS011;56604;48.652;9.194;2023-07-24T03:39:41;12.90;;;7.87;;
69410;SDS011;56604;48.652;9.194;2023-07-24T03:42:06;16.30;;;8.40;;
69410;SDS011;56604;48.652;9.194;2023-07-24T03:44:34;15.97;;;7.93;;
69410;SDS011;56604;48.652;9.194;2023-07-24T03:46:59;14.30;;;9.00;;
69410;SDS011;56604;48.652;9.194;2023-07-24T03:49:24;41.43;;;9.17;;
69410;SDS011;56604;48.652;9.194;2023-07-24T03:51:50;18.73;;;7.73;;
69410;SDS011;56604;48.652;9.194;2023-07-24T03:54:15;12.33;;;8.40;;
69410;SDS011;56604;48.652;9.194;2023-07-24T03:56:40;13.00;;;7.80;;
69410;SDS011;56604;48.652;9.194;2023-07-24T03:59:06;11.70;;;7.83;;
69410;SDS011;56604;48.652;9.194;2023-07-24T04:01:31;13.93;;;8.33;;
69410;SDS011;56604;48.652;9.194;2023-07-24T04:03:57;10.00;;;7.70;;
69410;SDS011;56604;48.652;9.194;2023-07-24T04:06:23;11.63;;;8.17;;
69410;SDS011;56604;48.652;9.194;2023-07-24T04:08:48;16.77;;;8.93;;
69410;SDS011;56604;48.652;9.194;2023-07-24T04:11:13;15.00;;;8.00;;
69410;SDS011;56604;48.652;9.194;2023-07-24T04:13:39;12.43;;;8.23;;
69410;SDS011;56604;48.652;9.194;2023-07-24T04:16:04;10.67;;;7.53;;
69410;SDS011;56604;48.652;9.194;2023-07-24T04:18:29;8.90;;;7.50;;
69410;SDS011;56604;48.652;9.194;2023-07-24T04:20:55;11.70;;;8.40;;
69410;SDS011;56604;48.652;9.194;2023-07-24T04:23:21;14.20;;;7.77;;
69410;SDS011;56604;48.652;9.194;2023-07-24T04:25:46;10.73;;;8.53;;
69410;SDS011;56604;48.652;9.194;2023-07-24T04:28:14;12.57;;;7.80;;
69410;SDS011;56604;48.652;9.194;2023-07-24T04:30:39;11.60;;;8.40;;
69410;SDS011;56604;48.652;9.194;2023-07-24T04:33:04;12.00;;;8.33;;
69410;SDS011;56604;48.652;9.194;2023-07-24T04:35:29;20.80;;;8.33;;
69410;SDS011;56604;48.652;9.194;2023-07-24T04:37:55;11.60;;;8.03;;
69410;SDS011;56604;48.652;9.194;2023-07-24T04:40:22;14.33;;;8.27;;
69410;SDS011;56604;48.652;9.194;2023-07-24T04:42:47;12.40;;;8.17;;
69410;SDS011;56604;48.652;9.194;2023-07-24T04:45:12;14.20;;;8.77;;
69410;SDS011;56604;48.652;9.194;2023-07-24T04:47:37;13.50;;;8.60;;
69410;SDS011;56604;48.652;9.194;2023-07-24T04:50:03;13.10;;;8.37;;
69410;SDS011;56604;48.652;9.194;2023-07-24T04:52:29;12.47;;;7.73;;
69410;SDS011;56604;48.652;9.194;2023-07-24T04:54:54;18.20;;;7.10;;
69410;SDS011;56604;48.652;9.194;2023-07-24T04:57:20;14.73;;;9.27;;
69410;SDS011;56604;48.652;9.194;2023-07-24T04:59:45;14.60;;;8.10;;
69410;SDS011;56604;48.652;9.194;2023-07-24T05:02:11;18.90;;;8.80;;
69410;SDS011;56604;48.652;9.194;2023-07-24T05:04:36;10.80;;;7.90;;
69410;SDS011;56604;48.652;9.194;2023-07-24T05:07:02;13.40;;;8.53;;
69410;SDS011;56604;48.652;9.194;2023-07-24T05:09:27;16.93;;;8.87;;
69410;SDS011;56604;48.652;9.194;2023-07-24T05:11:52;11.53;;;7.87;;
69410;SDS011;56604;48.652;9.194;2023-07-24T05:14:18;12.43;;;9.13;;
69410;SDS011;56604;48.652;9.194;2023-07-24T05:16:43;11.90;;;7.60;;
69410;SDS011;56604;48.652;9.194;2023-07-24T05:19:08;12.37;;;8.37;;
69410;SDS011;56604;48.652;9.194;2023-07-24T05:21:33;13.10;;;9.07;;
69410;SDS011;56604;48.652;9.194;2023-07-24T05:23:59;14.83;;;8.67;;
69410;SDS011;56604;48.652;9.194;2023-07-24T05:26:24;14.30;;;8.43;;
69410;SDS011;56604;48.652;9.194;2023-07-24T05:28:49;13.50;;;8.77;;
69410;SDS011;56604;48.652;9.194;2023-07-24T05:31:15;13.93;;;8.67;;
69410;SDS011;56604;48.652;9.194;2023-07-24T05:33:40;10.10;;;7.97;;
69410;SDS011;56604;48.652;9.194;2023-07-24T05:36:05;13.07;;;7.70;;
69410;SDS011;56604;48.652;9.194;2023-07-24T05:38:31;10.83;;;8.20;;
69410;SDS011;56604;48.652;9.194;2023-07-24T05:40:57;10.67;;;8.17;;
69410;SDS011;56604;48.652;9.194;2023-07-24T05:43:23;13.97;;;8.30;;
69410;SDS011;56604;48.652;9.194;2023-07-24T05:45:49;11.33;;;8.30;;
69410;SDS011;56604;48.652;9.194;2023-07-24T05:48:16;11.77;;;7.27;;
69410;SDS011;56604;48.652;9.194;2023-07-24T05:50:41;14.70;;;9.10;;
69410;SDS011;56604;48.652;9.194;2023-07-24T05:53:06;10.63;;;7.67;;
69410;SDS011;56604;48.652;9.194;2023-07-24T05:55:32;14.00;;;8.30;;
69410;SDS011;56604;48.652;9.194;2023-07-24T05:57:57;11.50;;;8.10;;
69410;SDS011;56604;48.652;9.194;2023-07-24T06:00:22;13.33;;;8.90;;
69410;SDS011;56604;48.652;9.194;2023-07-24T06:02:48;16.90;;;9.10;;
69410;SDS011;56604;48.652;9.194;2023-07-24T06:05:13;12.40;;;8.70;;
69410;SDS011;56604;48.652;9.194;2023-07-24T06:07:38;13.23;;;8.50;;
69410;SDS011;56604;48.652;9.194;2023-07-24T06:10:04;11.90;;;8.60;;
69410;SDS011;56604;48.652;9.194;2023-07-24T06:12:29;17.73;;;8.40;;
69410;SDS011;56604;48.652;9.194;2023-07-24T06:14:54;22.83;;;9.70;;
69410;SDS011;56604;48.652;9.194;2023-07-24T06:17:20;17.60;;;9.20;;
69410;SDS011;56604;48.652;9.194;2023-07-24T06:19:45;12.03;;;8.40;;
69410;SDS011;56604;48.652;9.194;2023-07-24T06:22:10;11.73;;;8.60;;
69410;SDS011;56604;48.652;9.194;2023-07-24T06:24:36;12.57;;;7.93;;
69410;SDS011;56604;48.652;9.194;2023-07-24T06:27:01;10.30;;;8.20;;
69410;SDS011;56604;48.652;9.194;2023-07-24T06:29:26;12.13;;;8.97;;
69410;SDS011;56604;48.652;9.194;2023-07-24T06:31:52;21.83;;;8.23;;
69410;SDS011;56604;48.652;9.194;2023-07-24T06:34:17;21.50;;;8.80;;
69410;SDS011;56604;48.652;9.194;2023-07-24T06:36:42;19.20;;;8.40;;
69410;SDS011;56604;48.652;9.194;2023-07-24T06:39:08;14.70;;;8.67;;
69410;SDS011;56604;48.652;9.194;2023-07-24T06:41:33;13.10;;;7.87;;
69410;SDS011;56604;48.652;9.194;2023-07-24T06:43:58;9.43;;;7.60;;
69410;SDS011;56604;48.652;9.194;2023-07-24T06:46:24;11.60;;;9.07;;
69410;SDS011;56604;48.652;9.194;2023-07-24T06:48:49;12.10;;;8.67;;
69410;SDS011;56604;48.652;9.194;2023-07-24T06:51:14;9.43;;;7.43;;
69410;SDS011;56604;48.652;9.194;2023-07-24T06:53:40;22.20;;;9.47;;
69410;SDS011;56604;48.652;9.194;2023-07-24T06:56:05;13.77;;;8.97;;
69410;SDS011;56604;48.652;9.194;2023-07-24T06:58:30;15.53;;;8.70;;
69410;SDS011;56604;48.652;9.194;2023-07-24T07:00:55;12.53;;;8.23;;
69410;SDS011;56604;48.652;9.194;2023-07-24T07:03:21;15.43;;;8.60;;
69410;SDS011;56604;48.652;9.194;2023-07-24T07:05:46;12.67;;;8.30;;
69410;SDS011;56604;48.652;9.194;2023-07-24T07:08:11;13.53;;;8.20;;
69410;SDS011;56604;48.652;9.194;2023-07-24T07:10:36;13.60;;;8.70;;
69410;SDS011;56604;48.652;9.194;2023-07-24T07:13:02;15.40;;;9.23;;
69410;SDS011;56604;48.652;9.194;2023-07-24T07:15:27;12.80;;;8.80;;
69410;SDS011;56604;48.652;9.194;2023-07-24T07:17:52;12.03;;;8.60;;
69410;SDS011;56604;48.652;9.194;2023-07-24T07:20:18;11.93;;;8.20;;
69410;SDS011;56604;48.652;9.194;2023-07-24T07:22:43;16.70;;;8.97;;
69410;SDS011;56604;48.652;9.194;2023-07-24T07:25:08;20.50;;;8.90;;
69410;SDS011;56604;48.652;9.194;2023-07-24T07:27:34;13.00;;;9.70;;
69410;SDS011;56604;48.652;9.194;2023-07-24T07:29:59;12.67;;;9.20;;
69410;SDS011;56604;48.652;9.194;2023-07-24T07:32:24;15.97;;;9.10;;
69410;SDS011;56604;48.652;9.194;2023-07-24T07:34:50;13.77;;;8.57;;
69410;SDS011;56604;48.652;9.194;2023-07-24T07:37:15;12.90;;;8.80;;
69410;SDS011;56604;48.652;9.194;2023-07-24T07:39:41;16.60;;;7.83;;
69410;SDS011;56604;48.652;9.194;2023-07-24T07:42:06;11.37;;;7.93;;
69410;SDS011;56604;48.652;9.194;2023-07-24T07:44:31;14.83;;;7.83;;
69410;SDS011;56604;48.652;9.194;2023-07-24T07:46:56;11.77;;;8.40;;
69410;SDS011;56604;48.652;9.194;2023-07-24T07:49:22;7.87;;;6.77;;
69410;SDS011;56604;48.652;9.194;2023-07-24T07:51:47;9.70;;;7.90;;
69410;SDS011;56604;48.652;9.194;2023-07-24T07:54:12;13.20;;;8.20;;
69410;SDS011;56604;48.652;9.194;2023-07-24T07:56:38;13.33;;;7.70;;
69410;SDS011;56604;48.652;9.194;2023-07-24T07:59:03;20.73;;;7.57;;
69410;SDS011;56604;48.652;9.194;2023-07-24T08:01:29;11.70;;;8.57;;
69410;SDS011;56604;48.652;9.194;2023-07-24T08:03:55;11.57;;;7.87;;
69410;SDS011;56604;48.652;9.194;2023-07-24T08:06:20;8.60;;;7.00;;
69410;SDS011;56604;48.652;9.194;2023-07-24T08:08:46;11.57;;;7.50;;
69410;SDS011;56604;48.652;9.194;2023-07-24T08:11:12;16.00;;;9.27;;
69410;SDS011;56604;48.652;9.194;2023-07-24T08:13:37;10.63;;;8.03;;
69410;SDS011;56604;48.652;9.194;2023-07-24T08:16:02;12.70;;;8.40;;
69410;SDS011;56604;48.652;9.194;2023-07-24T08:18:29;19.90;;;7.90;;
69410;SDS011;56604;48.652;9.194;2023-07-24T08:20:57;15.33;;;8.30;;
69410;SDS011;56604;48.652;9.194;2023-07-24T08:23:22;20.47;;;8.43;;
69410;SDS011;56604;48.652;9.194;2023-07-24T08:25:52;13.70;;;8.90;;
69410;SDS011;56604;48.652;9.194;2023-07-24T08:28:18;11.17;;;7.90;;
69410;SDS011;56604;48.652;9.194;2023-07-24T08:30:43;11.40;;;7.70;;
69410;SDS011;56604;48.652;9.194;2023-07-24T08:33:08;14.53;;;8.20;;
69410;SDS011;56604;48.652;9.194;2023-07-24T08:35:34;19.33;;;8.40;;
69410;SDS011;56604;48.652;9.194;2023-07-24T08:37:59;14.97;;;8.63;;
69410;SDS011;56604;48.652;9.194;2023-07-24T08:40:24;13.17;;;7.70;;
69410;SDS011;56604;48.652;9.194;2023-07-24T08:42:50;12.40;;;8.63;;
69410;SDS011;56604;48.652;9.194;2023-07-24T08:45:17;11.47;;;7.67;;
69410;SDS011;56604;48.652;9.194;2023-07-24T08:47:44;13.20;;;8.00;;
69410;SDS011;56604;48.652;9.194;2023-07-24T08:50:10;13.70;;;8.73;;
69410;SDS011;56604;48.652;9.194;2023-07-24T08:52:40;11.03;;;7.43;;
69410;SDS011;56604;48.652;9.194;2023-07-24T08:55:07;12.17;;;7.40;;
69410;SDS011;56604;48.652;9.194;2023-07-24T08:57:33;11.30;;;7.50;;
69410;SDS011;56604;48.652;9.194;2023-07-24T08:59:59;8.90;;;6.90;;
69410;SDS011;56604;48.652;9.194;2023-07-24T09:02:29;12.43;;;7.40;;
69410;SDS011;56604;48.652;9.194;2023-07-24T09:04:54;7.73;;;6.10;;
69410;SDS011;56604;48.652;9.194;2023-07-24T09:07:19;9.93;;;7.13;;
69410;SDS011;56604;48.652;9.194;2023-07-24T09:09:46;12.70;;;6.40;;
69410;SDS011;56604;48.652;9.194;2023-07-24T09:12:15;8.93;;;6.77;;
69410;SDS011;56604;48.652;9.194;2023-07-24T09:14:41;10.80;;;6.80;;
69410;SDS011;56604;48.652;9.194;2023-07-24T09:17:07;8.93;;;6.93;;
69410;SDS011;56604;48.652;9.194;2023-07-24T09:19:34;9.43;;;6.60;;
69410;SDS011;56604;48.652;9.194;2023-07-24T09:22:12;8.73;;;6.93;;
69410;SDS011;56604;48.652;9.194;2023-07-24T09:24:48;8.27;;;7.03;;
69410;SDS011;56604;48.652;9.194;2023-07-24T09:27:15;10.10;;;6.60;;
69410;SDS011;56604;48.652;9.194;2023-07-24T09:29:40;6.80;;;5.97;;
69410;SDS011;56604;48.652;9.194;2023-07-24T09:32:06;18.60;;;6.10;;
69410;SDS011;56604;48.652;9.194;2023-07-24T09:34:32;11.30;;;6.43;;
69410;SDS011;56604;48.652;9.194;2023-07-24T09:36:57;10.33;;;6.50;;
69410;SDS011;56604;48.652;9.194;2023-07-24T09:39:24;6.93;;;5.53;;
69410;SDS011;56604;48.652;9.194;2023-07-24T09:41:50;7.97;;;6.33;;
69410;SDS011;56604;48.652;9.194;2023-07-24T09:44:15;8.50;;;5.93;;
69410;SDS011;56604;48.652;9.194;2023-07-24T09:46:41;7.00;;;5.80;;
69410;SDS011;56604;48.652;9.194;2023-07-24T09:49:08;7.70;;;6.17;;
69410;SDS011;56604;48.652;9.194;2023-07-24T09:51:34;9.53;;;6.13;;
69410;SDS011;56604;48.652;9.194;2023-07-24T09:54:13;8.80;;;6.27;;
69410;SDS011;56604;48.652;9.194;2023-07-24T09:56:45;7.90;;;6.20;;
69410;SDS011;56604;48.652;9.194;2023-07-24T09:59:12;10.30;;;6.23;;
69410;SDS011;56604;48.652;9.194;2023-07-24T10:01:38;9.10;;;6.17;;
69410;SDS011;56604;48.652;9.194;2023-07-24T10:04:04;7.20;;;5.70;;
69410;SDS011;56604;48.652;9.194;2023-07-24T10:06:30;11.30;;;6.30;;
69410;SDS011;56604;48.652;9.194;2023-07-24T10:08:56;8.10;;;5.90;;
69410;SDS011;56604;48.652;9.194;2023-07-24T10:11:22;7.60;;;5.93;;
69410;SDS011;56604;48.652;9.194;2023-07-24T10:13:49;8.50;;;6.90;;
69410;SDS011;56604;48.652;9.194;2023-07-24T10:16:15;6.70;;;6.00;;
69410;SDS011;56604;48.652;9.194;2023-07-24T10:18:42;9.97;;;6.17;;
69410;SDS011;56604;48.652;9.194;2023-07-24T10:21:09;9.50;;;6.67;;
69410;SDS011;56604;48.652;9.194;2023-07-24T10:23:36;10.20;;;6.93;;
69410;SDS011;56604;48.652;9.194;2023-07-24T10:26:05;7.63;;;6.60;;
69410;SDS011;56604;48.652;9.194;2023-07-24T10:28:38;15.33;;;7.13;;
69410;SDS011;56604;48.652;9.194;2023-07-24T10:31:08;11.80;;;7.30;;
69410;SDS011;56604;48.652;9.194;2023-07-24T10:33:46;28.63;;;7.27;;
69410;SDS011;56604;48.652;9.194;2023-07-24T10:36:16;18.77;;;7.40;;
69410;SDS011;56604;48.652;9.194;2023-07-24T10:38:44;11.23;;;7.30;;
69410;SDS011;56604;48.652;9.194;2023-07-24T10:41:10;12.53;;;7.30;;
69410;SDS011;56604;48.652;9.194;2023-07-24T10:43:46;7.70;;;6.90;;
69410;SDS011;56604;48.652;9.194;2023-07-24T10:46:13;9.43;;;6.60;;
69410;SDS011;56604;48.652;9.194;2023-07-24T10:48:43;18.27;;;7.10;;
69410;SDS011;56604;48.652;9.194;2023-07-24T10:51:10;10.80;;;6.67;;
69410;SDS011;56604;48.652;9.194;2023-07-24T10:53:36;10.77;;;6.70;;
69410;SDS011;56604;48.652;9.194;2023-07-24T10:56:06;9.50;;;7.27;;
69410;SDS011;56604;48.652;9.194;2023-07-24T10:58:32;11.20;;;6.83;;
69410;SDS011;56604;48.652;9.194;2023-07-24T11:00:58;10.50;;;7.43;;
69410;SDS011;56604;48.652;9.194;2023-07-24T11:03:24;11.60;;;6.87;;
69410;SDS011;56604;48.652;9.194;2023-07-24T11:05:49;41.60;;;8.03;;
69410;SDS011;56604;48.652;9.194;2023-07-24T11:08:16;17.03;;;7.30;;
69410;SDS011;56604;48.652;9.194;2023-07-24T11:10:46;45.47;;;8.67;;
69410;SDS011;56604;48.652;9.194;2023-07-24T11:13:22;67.27;;;9.20;;
69410;SDS011;56604;48.652;9.194;2023-07-24T11:15:51;16.83;;;7.87;;
69410;SDS011;56604;48.652;9.194;2023-07-24T11:18:17;21.70;;;8.73;;
69410;SDS011;56604;48.652;9.194;2023-07-24T11:21:03;17.03;;;7.73;;
69410;SDS011;56604;48.652;9.194;2023-07-24T11:23:30;26.47;;;7.93;;
69410;SDS011;56604;48.652;9.194;2023-07-24T11:25:55;46.87;;;10.53;;
69410;SDS011;56604;48.652;9.194;2023-07-24T11:28:21;57.73;;;10.10;;
69410;SDS011;56604;48.652;9.194;2023-07-24T11:30:48;18.00;;;7.60;;
69410;SDS011;56604;48.652;9.194;2023-07-24T11:33:14;11.30;;;7.20;;
69410;SDS011;56604;48.652;9.194;2023-07-24T11:35:41;10.23;;;7.20;;
69410;SDS011;56604;48.652;9.194;2023-07-24T11:38:10;15.93;;;7.20;;
69410;SDS011;56604;48.652;9.194;2023-07-24T11:40:40;7.97;;;6.80;;
69410;SDS011;56604;48.652;9.194;2023-07-24T11:43:14;9.13;;;6.77;;
69410;SDS011;56604;48.652;9.194;2023-07-24T11:45:44;15.20;;;6.60;;
69410;SDS011;56604;48.652;9.194;2023-07-24T11:48:11;11.00;;;7.53;;
69410;SDS011;56604;48.652;9.194;2023-07-24T11:50:45;23.03;;;7.70;;
69410;SDS011;56604;48.652;9.194;2023-07-24T11:55:50;28.97;;;8.87;;
69410;SDS011;56604;48.652;9.194;2023-07-24T11:58:16;35.83;;;10.27;;
69410;SDS011;56604;48.652;9.194;2023-07-24T12:00:43;62.93;;;9.40;;
69410;SDS011;56604;48.652;9.194;2023-07-24T12:03:08;47.60;;;8.10;;
69410;SDS011;56604;48.652;9.194;2023-07-24T12:05:40;22.10;;;7.93;;
69410;SDS011;56604;48.652;9.194;2023-07-24T12:08:07;11.97;;;7.17;;
69410;SDS011;56604;48.652;9.194;2023-07-24T12:10:35;11.33;;;7.13;;
69410;SDS011;56604;48.652;9.194;2023-07-24T12:13:01;13.80;;;6.07;;
69410;SDS011;56604;48.652;9.194;2023-07-24T12:15:26;9.17;;;6.17;;
69410;SDS011;56604;48.652;9.194;2023-07-24T12:17:52;11.40;;;6.40;;
69410;SDS011;56604;48.652;9.194;2023-07-24T12:20:17;8.47;;;6.37;;
69410;SDS011;56604;48.652;9.194;2023-07-24T12:22:43;8.00;;;6.73;;
69410;SDS011;56604;48.652;9.194;2023-07-24T12:25:08;11.30;;;6.70;;
69410;SDS011;56604;48.652;9.194;2023-07-24T12:27:34;10.93;;;5.90;;
69410;SDS011;56604;48.652;9.194;2023-07-24T12:29:59;10.57;;;6.97;;
69410;SDS011;56604;48.652;9.194;2023-07-24T12:32:25;10.67;;;6.43;;
69410;SDS011;56604;48.652;9.194;2023-07-24T12:34:51;6.60;;;5.90;;
69410;SDS011;56604;48.652;9.194;2023-07-24T12:37:18;6.63;;;5.93;;
69410;SDS011;56604;48.652;9.194;2023-07-24T12:39:44;24.50;;;6.50;;
69410;SDS011;56604;48.652;9.194;2023-07-24T12:42:10;12.23;;;5.90;;
69410;SDS011;56604;48.652;9.194;2023-07-24T12:44:36;8.57;;;6.27;;
69410;SDS011;56604;48.652;9.194;2023-07-24T12:47:01;9.33;;;5.87;;
69410;SDS011;56604;48.652;9.194;2023-07-24T12:49:26;8.70;;;6.80;;
69410;SDS011;56604;48.652;9.194;2023-07-24T12:51:51;6.50;;;5.80;;
69410;SDS011;56604;48.652;9.194;2023-07-24T12:54:17;8.53;;;5.80;;
69410;SDS011;56604;48.652;9.194;2023-07-24T12:56:44;7.50;;;5.70;;
69410;SDS011;56604;48.652;9.194;2023-07-24T12:59:10;7.07;;;5.63;;
69410;SDS011;56604;48.652;9.194;2023-07-24T13:01:35;8.37;;;5.50;;
69410;SDS011;56604;48.652;9.194;2023-07-24T13:04:01;5.77;;;5.27;;
69410;SDS011;56604;48.652;9.194;2023-07-24T13:06:26;10.30;;;5.87;;
69410;SDS011;56604;48.652;9.194;2023-07-24T13:08:51;8.00;;;5.40;;
69410;SDS011;56604;48.652;9.194;2023-07-24T13:11:17;7.70;;;5.37;;
69410;SDS011;56604;48.652;9.194;2023-07-24T13:13:42;5.27;;;4.77;;
69410;SDS011;56604;48.652;9.194;2023-07-24T13:16:07;7.43;;;5.27;;
69410;SDS011;56604;48.652;9.194;2023-07-24T13:18:33;7.57;;;5.40;;
69410;SDS011;56604;48.652;9.194;2023-07-24T13:20:58;8.60;;;5.47;;
69410;SDS011;56604;48.652;9.194;2023-07-24T13:23:23;5.57;;;4.87;;
69410;SDS011;56604;48.652;9.194;2023-07-24T13:25:49;6.53;;;4.80;;
69410;SDS011;56604;48.652;9.194;2023-07-24T13:28:15;5.60;;;5.10;;
69410;SDS011;56604;48.652;9.194;2023-07-24T13:30:41;6.67;;;4.80;;
69410;SDS011;56604;48.652;9.194;2023-07-24T13:33:06;16.43;;;4.90;;
69410;SDS011;56604;48.652;9.194;2023-07-24T13:35:32;6.27;;;5.07;;
69410;SDS011;56604;48.652;9.194;2023-07-24T13:37:57;5.60;;;4.53;;
69410;SDS011;56604;48.652;9.194;2023-07-24T13:40:22;8.40;;;4.93;;
69410;SDS011;56604;48.652;9.194;2023-07-24T13:42:48;9.03;;;5.13;;
69410;SDS011;56604;48.652;9.194;2023-07-24T13:45:13;4.47;;;4.07;;
69410;SDS011;56604;48.652;9.194;2023-07-24T13:47:38;6.30;;;4.60;;
69410;SDS011;56604;48.652;9.194;2023-07-24T13:50:04;4.80;;;4.13;;
69410;SDS011;56604;48.652;9.194;2023-07-24T13:52:29;4.87;;;4.37;;
69410;SDS011;56604;48.652;9.194;2023-07-24T13:54:55;4.90;;;4.00;;
69410;SDS011;56604;48.652;9.194;2023-07-24T13:57:20;6.60;;;4.50;;
69410;SDS011;56604;48.652;9.194;2023-07-24T13:59:46;4.87;;;4.37;;
69410;SDS011;56604;48.652;9.194;2023-07-24T14:02:12;4.70;;;4.27;;
69410;SDS011;56604;48.652;9.194;2023-07-24T14:04:38;4.90;;;4.50;;
69410;SDS011;56604;48.652;9.194;2023-07-24T14:07:03;4.90;;;4.23;;
69410;SDS011;56604;48.652;9.194;2023-07-24T14:09:29;4.90;;;4.50;;
69410;SDS011;56604;48.652;9.194;2023-07-24T14:11:56;4.90;;;4.33;;
69410;SDS011;56604;48.652;9.194;2023-07-24T14:14:21;4.87;;;4.37;;
69410;SDS011;56604;48.652;9.194;2023-07-24T14:16:48;9.80;;;4.63;;
69410;SDS011;56604;48.652;9.194;2023-07-24T14:19:13;6.20;;;4.50;;
69410;SDS011;56604;48.652;9.194;2023-07-24T14:21:39;7.40;;;4.80;;
69410;SDS011;56604;48.652;9.194;2023-07-24T14:24:05;4.37;;;3.97;;
69410;SDS011;56604;48.652;9.194;2023-07-24T14:26:30;6.10;;;3.87;;
69410;SDS011;56604;48.652;9.194;2023-07-24T14:28:55;5.17;;;3.90;;
69410;SDS011;56604;48.652;9.194;2023-07-24T14:31:21;4.50;;;4.07;;
69410;SDS011;56604;48.652;9.194;2023-07-24T14:33:46;6.83;;;4.50;;
69410;SDS011;56604;48.652;9.194;2023-07-24T14:36:11;3.70;;;3.37;;